sensor_id;sensor_type;location;lat;lon;timestamp;pressure;altitude;pressure_sealevel;temperature;humidity
54666;BME280;40566;50.006;36.180;2023-04-24T00:04:36;99837.84;;;9.24;67.22
54666;BME280;40566;50.006;36.180;2023-04-24T00:09:40;99839.66;;;9.19;67.23
54666;BME280;40566;50.006;36.180;2023-04-24T00:14:41;99838.97;;;9.12;67.16
54666;BME280;40566;50.006;36.180;2023-04-24T00:19:41;99846.72;;;9.11;67.31
54666;BME280;40566;50.006;36.180;2023-04-24T00:24:42;99839.94;;;9.05;67.05
54666;BME280;40566;50.006;36.180;2023-04-24T00:29:42;99838.41;;;8.97;67.35
54666;BME280;40566;50.006;36.180;2023-04-24T00:34:43;99840.19;;;8.93;67.42
54666;BME280;40566;50.006;36.180;2023-04-24T00:39:44;99842.75;;;8.95;67.46
54666;BME280;40566;50.006;36.180;2023-04-24T00:44:44;99835.94;;;8.90;67.59
54666;BME280;40566;50.006;36.180;2023-04-24T00:49:45;99837.88;;;8.79;67.82
54666;BME280;40566;50.006;36.180;2023-04-24T00:54:46;99828.56;;;8.72;67.83
54666;BME280;40566;50.006;36.180;2023-04-24T00:59:47;99831.97;;;8.72;67.82
54666;BME280;40566;50.006;36.180;2023-04-24T01:04:49;99820.97;;;8.64;67.94
54666;BME280;40566;50.006;36.180;2023-04-24T01:09:51;99830.53;;;8.59;67.82
54666;BME280;40566;50.006;36.180;2023-04-24T01:14:52;99834.78;;;8.60;67.59
54666;BME280;40566;50.006;36.180;2023-04-24T01:19:53;99834.09;;;8.52;67.67
54666;BME280;40566;50.006;36.180;2023-04-24T01:24:54;99839.38;;;8.44;68.22
54666;BME280;40566;50.006;36.180;2023-04-24T01:29:54;99829.13;;;8.41;68.41
54666;BME280;40566;50.006;36.180;2023-04-24T01:34:55;99813.88;;;8.27;68.32
54666;BME280;40566;50.006;36.180;2023-04-24T01:39:56;99826.53;;;8.40;68.40
54666;BME280;40566;50.006;36.180;2023-04-24T01:44:56;99814.53;;;8.39;68.40
54666;BME280;40566;50.006;36.180;2023-04-24T01:49:58;99818.00;;;8.38;68.60
54666;BME280;40566;50.006;36.180;2023-04-24T01:55:05;99808.50;;;8.40;68.68
54666;BME280;40566;50.006;36.180;2023-04-24T02:00:07;99820.75;;;8.25;69.06
54666;BME280;40566;50.006;36.180;2023-04-24T02:05:09;99818.16;;;8.28;68.71
54666;BME280;40566;50.006;36.180;2023-04-24T02:10:10;99828.59;;;8.19;68.96
54666;BME280;40566;50.006;36.180;2023-04-24T02:15:11;99826.94;;;8.15;68.93
54666;BME280;40566;50.006;36.180;2023-04-24T02:20:12;99844.97;;;8.17;68.36
54666;BME280;40566;50.006;36.180;2023-04-24T02:25:13;99835.59;;;8.11;68.46
54666;BME280;40566;50.006;36.180;2023-04-24T02:30:13;99837.38;;;8.07;68.54
54666;BME280;40566;50.006;36.180;2023-04-24T02:35:14;99838.34;;;8.02;68.46
54666;BME280;40566;50.006;36.180;2023-04-24T02:40:15;99838.56;;;7.88;68.96
54666;BME280;40566;50.006;36.180;2023-04-24T02:45:15;99840.25;;;7.89;69.21
54666;BME280;40566;50.006;36.180;2023-04-24T02:50:16;99838.41;;;7.95;69.27
54666;BME280;40566;50.006;36.180;2023-04-24T02:55:17;99840.97;;;7.99;69.47
54666;BME280;40566;50.006;36.180;2023-04-24T03:00:17;99845.38;;;7.90;69.58
54666;BME280;40566;50.006;36.180;2023-04-24T03:05:18;99855.47;;;8.06;69.61
54666;BME280;40566;50.006;36.180;2023-04-24T03:10:19;99865.72;;;8.07;69.54
54666;BME280;40566;50.006;36.180;2023-04-24T03:15:19;99866.38;;;8.20;69.57
54666;BME280;40566;50.006;36.180;2023-04-24T03:20:20;99874.72;;;8.34;69.17
54666;BME280;40566;50.006;36.180;2023-04-24T03:25:21;99876.28;;;8.46;69.13
54666;BME280;40566;50.006;36.180;2023-04-24T03:30:21;99876.19;;;8.52;69.46
54666;BME280;40566;50.006;36.180;2023-04-24T03:35:22;99874.28;;;8.64;69.72
54666;BME280;40566;50.006;36.180;2023-04-24T03:40:23;99891.97;;;8.84;69.61
54666;BME280;40566;50.006;36.180;2023-04-24T03:45:23;99900.38;;;8.93;69.75
54666;BME280;40566;50.006;36.180;2023-04-24T03:50:24;99892.41;;;9.06;69.75
54666;BME280;40566;50.006;36.180;2023-04-24T03:55:26;99899.81;;;9.24;69.60
54666;BME280;40566;50.006;36.180;2023-04-24T04:00:27;99897.00;;;9.35;69.51
54666;BME280;40566;50.006;36.180;2023-04-24T04:05:28;99888.16;;;9.47;69.58
54666;BME280;40566;50.006;36.180;2023-04-24T04:10:28;99890.47;;;9.58;69.48
54666;BME280;40566;50.006;36.180;2023-04-24T04:15:29;99894.66;;;9.65;69.57
54666;BME280;40566;50.006;36.180;2023-04-24T04:20:30;99891.06;;;9.72;69.61
54666;BME280;40566;50.006;36.180;2023-04-24T04:25:30;99888.06;;;9.90;69.58
54666;BME280;40566;50.006;36.180;2023-04-24T04:30:31;99889.53;;;10.01;69.63
54666;BME280;40566;50.006;36.180;2023-04-24T04:35:32;99884.22;;;10.07;69.61
54666;BME280;40566;50.006;36.180;2023-04-24T04:40:33;99895.97;;;10.20;69.96
54666;BME280;40566;50.006;36.180;2023-04-24T04:45:33;99898.53;;;10.22;70.18
54666;BME280;40566;50.006;36.180;2023-04-24T04:50:35;99888.84;;;10.31;70.85
54666;BME280;40566;50.006;36.180;2023-04-24T04:55:36;99894.66;;;10.41;70.80
54666;BME280;40566;50.006;36.180;2023-04-24T05:00:37;99900.31;;;10.56;70.43
54666;BME280;40566;50.006;36.180;2023-04-24T05:05:38;99894.81;;;10.68;70.58
54666;BME280;40566;50.006;36.180;2023-04-24T05:10:40;99889.38;;;10.79;70.28
54666;BME280;40566;50.006;36.180;2023-04-24T05:15:41;99895.13;;;10.90;70.16
54666;BME280;40566;50.006;36.180;2023-04-24T05:20:42;99892.22;;;11.02;69.90
54666;BME280;40566;50.006;36.180;2023-04-24T05:25:44;99885.69;;;11.19;69.46
54666;BME280;40566;50.006;36.180;2023-04-24T05:30:45;99891.44;;;11.30;69.25
54666;BME280;40566;50.006;36.180;2023-04-24T05:35:45;99885.06;;;11.42;68.89
54666;BME280;40566;50.006;36.180;2023-04-24T05:40:46;99880.34;;;11.55;68.78
54666;BME280;40566;50.006;36.180;2023-04-24T05:45:47;99879.94;;;11.68;68.28
54666;BME280;40566;50.006;36.180;2023-04-24T05:50:48;99876.03;;;11.83;68.26
54666;BME280;40566;50.006;36.180;2023-04-24T05:55:48;99876.44;;;11.99;67.33
54666;BME280;40566;50.006;36.180;2023-04-24T06:00:49;99871.63;;;12.15;67.33
54666;BME280;40566;50.006;36.180;2023-04-24T06:05:50;99860.78;;;12.29;67.26
54666;BME280;40566;50.006;36.180;2023-04-24T06:10:51;99863.72;;;12.45;66.69
54666;BME280;40566;50.006;36.180;2023-04-24T06:15:52;99859.59;;;12.64;66.00
54666;BME280;40566;50.006;36.180;2023-04-24T06:20:53;99877.25;;;12.80;65.99
54666;BME280;40566;50.006;36.180;2023-04-24T06:25:53;99867.22;;;12.94;64.85
54666;BME280;40566;50.006;36.180;2023-04-24T06:30:54;99874.38;;;13.11;64.72
54666;BME280;40566;50.006;36.180;2023-04-24T06:35:55;99872.94;;;13.27;64.36
54666;BME280;40566;50.006;36.180;2023-04-24T06:40:55;99876.69;;;13.44;63.64
54666;BME280;40566;50.006;36.180;2023-04-24T06:45:57;99868.31;;;13.59;63.49
54666;BME280;40566;50.006;36.180;2023-04-24T06:50:58;99875.41;;;13.78;62.31
54666;BME280;40566;50.006;36.180;2023-04-24T06:55:59;99872.41;;;13.88;61.93
54666;BME280;40566;50.006;36.180;2023-04-24T07:00:59;99869.41;;;13.98;61.80
54666;BME280;40566;50.006;36.180;2023-04-24T07:06:00;99866.88;;;14.18;61.81
54666;BME280;40566;50.006;36.180;2023-04-24T07:11:01;99865.38;;;14.33;61.07
54666;BME280;40566;50.006;36.180;2023-04-24T07:16:02;99864.44;;;14.56;60.37
54666;BME280;40566;50.006;36.180;2023-04-24T07:21:03;99865.31;;;14.77;59.35
54666;BME280;40566;50.006;36.180;2023-04-24T07:26:03;99863.00;;;14.90;58.79
54666;BME280;40566;50.006;36.180;2023-04-24T07:31:04;99857.66;;;14.93;58.40
54666;BME280;40566;50.006;36.180;2023-04-24T07:36:05;99859.16;;;15.18;57.16
54666;BME280;40566;50.006;36.180;2023-04-24T07:41:06;99859.63;;;15.46;56.83
54666;BME280;40566;50.006;36.180;2023-04-24T07:46:07;99848.09;;;15.70;55.50
54666;BME280;40566;50.006;36.180;2023-04-24T07:51:08;99845.47;;;15.70;55.19
54666;BME280;40566;50.006;36.180;2023-04-24T07:56:11;99841.44;;;16.00;54.92
54666;BME280;40566;50.006;36.180;2023-04-24T08:01:11;99841.47;;;16.35;54.28
54666;BME280;40566;50.006;36.180;2023-04-24T08:06:12;99843.91;;;16.56;53.47
54666;BME280;40566;50.006;36.180;2023-04-24T08:16:29;99839.31;;;16.26;53.62
54666;BME280;40566;50.006;36.180;2023-04-24T08:21:30;99826.84;;;16.49;52.46
54666;BME280;40566;50.006;36.180;2023-04-24T08:26:30;99832.00;;;16.68;52.40
54666;BME280;40566;50.006;36.180;2023-04-24T08:31:32;99836.75;;;16.77;51.88
54666;BME280;40566;50.006;36.180;2023-04-24T08:36:33;99833.34;;;16.92;51.38
54666;BME280;40566;50.006;36.180;2023-04-24T08:41:34;99815.34;;;17.03;50.82
54666;BME280;40566;50.006;36.180;2023-04-24T08:46:35;99815.13;;;17.56;49.90
54666;BME280;40566;50.006;36.180;2023-04-24T08:51:37;99803.78;;;17.71;49.34
54666;BME280;40566;50.006;36.180;2023-04-24T08:56:38;99807.31;;;18.02;49.23
54666;BME280;40566;50.006;36.180;2023-04-24T09:01:41;99802.91;;;18.47;48.37
54666;BME280;40566;50.006;36.180;2023-04-24T09:06:41;99793.84;;;18.38;48.83
54666;BME280;40566;50.006;36.180;2023-04-24T09:11:42;99787.97;;;18.63;48.20
54666;BME280;40566;50.006;36.180;2023-04-24T09:16:43;99784.22;;;18.39;48.52
54666;BME280;40566;50.006;36.180;2023-04-24T09:21:46;99774.03;;;18.63;47.67
54666;BME280;40566;50.006;36.180;2023-04-24T09:26:46;99778.53;;;19.04;46.61
54666;BME280;40566;50.006;36.180;2023-04-24T09:31:47;99764.91;;;19.26;46.05
54666;BME280;40566;50.006;36.180;2023-04-24T09:36:48;99768.88;;;20.13;44.77
54666;BME280;40566;50.006;36.180;2023-04-24T09:41:54;99749.09;;;26.36;33.13
54666;BME280;40566;50.006;36.180;2023-04-24T09:46:58;99741.69;;;30.63;27.31
54666;BME280;40566;50.006;36.180;2023-04-24T09:52:07;99739.53;;;30.58;28.48
54666;BME280;40566;50.006;36.180;2023-04-24T09:57:08;99739.50;;;31.60;26.93
54666;BME280;40566;50.006;36.180;2023-04-24T10:02:19;99731.16;;;34.62;24.07
54666;BME280;40566;50.006;36.180;2023-04-24T10:07:20;99729.22;;;28.39;31.35
54666;BME280;40566;50.006;36.180;2023-04-24T10:12:21;99733.59;;;24.94;36.16
54666;BME280;40566;50.006;36.180;2023-04-24T10:17:24;99722.44;;;23.66;37.60
54666;BME280;40566;50.006;36.180;2023-04-24T10:22:25;99727.66;;;25.90;33.11
54666;BME280;40566;50.006;36.180;2023-04-24T10:27:27;99724.50;;;26.81;31.48
54666;BME280;40566;50.006;36.180;2023-04-24T10:32:29;99730.63;;;25.38;33.44
54666;BME280;40566;50.006;36.180;2023-04-24T10:37:35;99702.81;;;32.22;24.61
54666;BME280;40566;50.006;36.180;2023-04-24T10:42:40;99710.59;;;36.62;20.56
54666;BME280;40566;50.006;36.180;2023-04-24T10:47:43;99703.84;;;31.68;25.86
54666;BME280;40566;50.006;36.180;2023-04-24T10:52:50;99700.31;;;30.59;26.79
54666;BME280;40566;50.006;36.180;2023-04-24T10:58:03;99687.22;;;27.72;30.43
54666;BME280;40566;50.006;36.180;2023-04-24T11:03:23;99691.63;;;28.68;29.31
54666;BME280;40566;50.006;36.180;2023-04-24T11:08:31;99680.44;;;30.05;27.31
54666;BME280;40566;50.006;36.180;2023-04-24T11:34:48;99664.81;;;26.29;31.45
54666;BME280;40566;50.006;36.180;2023-04-24T11:39:57;99653.72;;;25.87;31.73
54666;BME280;40566;50.006;36.180;2023-04-24T11:44:58;99667.00;;;24.49;33.19
54666;BME280;40566;50.006;36.180;2023-04-24T11:50:00;99657.97;;;23.04;34.21
54666;BME280;40566;50.006;36.180;2023-04-24T11:55:01;99651.22;;;22.68;34.41
54666;BME280;40566;50.006;36.180;2023-04-24T12:00:03;99645.44;;;22.74;33.53
54666;BME280;40566;50.006;36.180;2023-04-24T12:05:05;99637.91;;;22.58;33.45
54666;BME280;40566;50.006;36.180;2023-04-24T12:10:07;99634.19;;;23.15;32.80
54666;BME280;40566;50.006;36.180;2023-04-24T12:15:08;99634.13;;;23.80;32.41
54666;BME280;40566;50.006;36.180;2023-04-24T12:20:09;99617.13;;;24.85;30.76
54666;BME280;40566;50.006;36.180;2023-04-24T12:25:10;99632.06;;;23.84;31.55
54666;BME280;40566;50.006;36.180;2023-04-24T12:30:13;99609.66;;;23.04;32.58
54666;BME280;40566;50.006;36.180;2023-04-24T12:35:26;99600.09;;;22.80;32.72
54666;BME280;40566;50.006;36.180;2023-04-24T12:40:27;99607.31;;;23.43;31.95
54666;BME280;40566;50.006;36.180;2023-04-24T12:45:29;99608.88;;;26.23;28.54
54666;BME280;40566;50.006;36.180;2023-04-24T12:50:29;99611.78;;;29.91;24.87
54666;BME280;40566;50.006;36.180;2023-04-24T12:55:30;99602.38;;;30.20;24.65
54666;BME280;40566;50.006;36.180;2023-04-24T13:00:30;99601.28;;;29.98;25.41
54666;BME280;40566;50.006;36.180;2023-04-24T13:05:31;99604.03;;;27.80;27.43
54666;BME280;40566;50.006;36.180;2023-04-24T13:10:32;99605.50;;;25.83;29.89
54666;BME280;40566;50.006;36.180;2023-04-24T13:15:33;99598.06;;;24.31;31.63
54666;BME280;40566;50.006;36.180;2023-04-24T13:20:33;99598.56;;;23.21;32.42
54666;BME280;40566;50.006;36.180;2023-04-24T13:25:36;99588.72;;;22.25;33.21
54666;BME280;40566;50.006;36.180;2023-04-24T13:30:37;99595.38;;;21.61;33.99
54666;BME280;40566;50.006;36.180;2023-04-24T13:35:38;99577.94;;;21.36;34.36
54666;BME280;40566;50.006;36.180;2023-04-24T13:40:39;99586.41;;;21.28;34.46
54666;BME280;40566;50.006;36.180;2023-04-24T13:45:39;99574.34;;;21.02;34.45
54666;BME280;40566;50.006;36.180;2023-04-24T13:50:41;99572.38;;;20.44;35.31
54666;BME280;40566;50.006;36.180;2023-04-24T13:55:41;99573.31;;;19.93;35.65
54666;BME280;40566;50.006;36.180;2023-04-24T14:00:42;99578.00;;;19.62;36.40
54666;BME280;40566;50.006;36.180;2023-04-24T14:05:42;99570.44;;;19.45;35.88
54666;BME280;40566;50.006;36.180;2023-04-24T14:10:43;99579.66;;;19.38;36.10
54666;BME280;40566;50.006;36.180;2023-04-24T14:15:43;99570.50;;;19.18;36.69
54666;BME280;40566;50.006;36.180;2023-04-24T14:20:44;99571.31;;;19.06;36.82
54666;BME280;40566;50.006;36.180;2023-04-24T14:25:45;99567.19;;;19.01;36.88
54666;BME280;40566;50.006;36.180;2023-04-24T14:30:47;99559.94;;;18.92;37.22
54666;BME280;40566;50.006;36.180;2023-04-24T14:35:47;99564.47;;;18.76;37.08
54666;BME280;40566;50.006;36.180;2023-04-24T14:40:48;99571.44;;;18.62;37.68
54666;BME280;40566;50.006;36.180;2023-04-24T14:45:48;99559.31;;;18.47;38.03
54666;BME280;40566;50.006;36.180;2023-04-24T14:50:50;99560.09;;;18.35;37.75
54666;BME280;40566;50.006;36.180;2023-04-24T14:55:50;99562.38;;;18.27;38.55
54666;BME280;40566;50.006;36.180;2023-04-24T15:00:51;99553.94;;;18.21;38.29
54666;BME280;40566;50.006;36.180;2023-04-24T15:05:54;99552.63;;;18.14;38.39
54666;BME280;40566;50.006;36.180;2023-04-24T15:10:55;99561.19;;;18.03;38.86
54666;BME280;40566;50.006;36.180;2023-04-24T15:15:56;99554.44;;;17.85;39.32
54666;BME280;40566;50.006;36.180;2023-04-24T15:20:56;99556.84;;;17.74;39.70
54666;BME280;40566;50.006;36.180;2023-04-24T15:25:57;99561.59;;;17.67;40.44
54666;BME280;40566;50.006;36.180;2023-04-24T15:30:58;99559.53;;;17.58;40.46
54666;BME280;40566;50.006;36.180;2023-04-24T15:35:58;99555.03;;;17.45;40.60
54666;BME280;40566;50.006;36.180;2023-04-24T15:40:59;99552.97;;;17.36;41.29
54666;BME280;40566;50.006;36.180;2023-04-24T15:46:00;99547.44;;;17.27;41.78
54666;BME280;40566;50.006;36.180;2023-04-24T15:51:01;99538.53;;;17.15;41.97
54666;BME280;40566;50.006;36.180;2023-04-24T15:56:01;99544.56;;;17.01;42.53
54666;BME280;40566;50.006;36.180;2023-04-24T16:01:02;99545.94;;;16.92;42.58
54666;BME280;40566;50.006;36.180;2023-04-24T16:06:03;99534.16;;;16.85;42.87
54666;BME280;40566;50.006;36.180;2023-04-24T16:11:04;99530.38;;;16.75;43.25
54666;BME280;40566;50.006;36.180;2023-04-24T16:16:04;99533.56;;;16.64;43.55
54666;BME280;40566;50.006;36.180;2023-04-24T16:21:05;99526.50;;;16.50;44.17
54666;BME280;40566;50.006;36.180;2023-04-24T16:26:08;99530.47;;;16.41;44.42
54666;BME280;40566;50.006;36.180;2023-04-24T16:31:09;99529.53;;;16.26;44.82
54666;BME280;40566;50.006;36.180;2023-04-24T16:36:09;99531.91;;;16.15;45.18
54666;BME280;40566;50.006;36.180;2023-04-24T16:41:12;99526.50;;;16.02;45.74
54666;BME280;40566;50.006;36.180;2023-04-24T16:46:13;99525.72;;;15.84;46.00
54666;BME280;40566;50.006;36.180;2023-04-24T16:51:13;99535.25;;;15.68;46.37
54666;BME280;40566;50.006;36.180;2023-04-24T16:56:14;99537.91;;;15.51;46.48
54666;BME280;40566;50.006;36.180;2023-04-24T17:01:15;99540.28;;;15.38;47.40
54666;BME280;40566;50.006;36.180;2023-04-24T17:06:15;99553.09;;;15.25;47.52
54666;BME280;40566;50.006;36.180;2023-04-24T17:11:16;99551.09;;;15.13;48.13
54666;BME280;40566;50.006;36.180;2023-04-24T17:16:17;99564.66;;;15.02;49.16
54666;BME280;40566;50.006;36.180;2023-04-24T17:21:17;99566.94;;;14.91;49.12
54666;BME280;40566;50.006;36.180;2023-04-24T17:26:18;99573.31;;;14.85;49.38
54666;BME280;40566;50.006;36.180;2023-04-24T17:31:20;99559.00;;;14.75;49.53
54666;BME280;40566;50.006;36.180;2023-04-24T17:36:20;99574.16;;;14.66;50.23
54666;BME280;40566;50.006;36.180;2023-04-24T17:41:21;99580.59;;;14.59;50.47
54666;BME280;40566;50.006;36.180;2023-04-24T17:46:22;99583.53;;;14.52;51.15
54666;BME280;40566;50.006;36.180;2023-04-24T17:51:22;99578.66;;;14.44;50.97
54666;BME280;40566;50.006;36.180;2023-04-24T17:56:23;99583.28;;;14.37;51.00
54666;BME280;40566;50.006;36.180;2023-04-24T18:01:24;99583.50;;;14.33;51.07
54666;BME280;40566;50.006;36.180;2023-04-24T18:06:25;99590.06;;;14.22;51.29
54666;BME280;40566;50.006;36.180;2023-04-24T18:11:27;99592.00;;;14.17;51.66
54666;BME280;40566;50.006;36.180;2023-04-24T18:16:28;99594.06;;;14.11;52.08
54666;BME280;40566;50.006;36.180;2023-04-24T18:21:29;99597.06;;;14.01;52.35
54666;BME280;40566;50.006;36.180;2023-04-24T18:26:30;99600.00;;;13.94;52.40
54666;BME280;40566;50.006;36.180;2023-04-24T18:31:31;99598.59;;;13.86;53.00
54666;BME280;40566;50.006;36.180;2023-04-24T18:36:32;99603.19;;;13.80;53.54
54666;BME280;40566;50.006;36.180;2023-04-24T18:41:32;99604.44;;;13.71;53.76
54666;BME280;40566;50.006;36.180;2023-04-24T18:46:34;99610.63;;;13.68;53.83
54666;BME280;40566;50.006;36.180;2023-04-24T18:51:37;99606.59;;;13.61;54.15
54666;BME280;40566;50.006;36.180;2023-04-24T18:56:38;99602.50;;;13.56;54.52
54666;BME280;40566;50.006;36.180;2023-04-24T19:01:39;99607.97;;;13.49;54.78
54666;BME280;40566;50.006;36.180;2023-04-24T19:06:39;99611.59;;;13.45;54.88
54666;BME280;40566;50.006;36.180;2023-04-24T19:11:40;99598.81;;;13.41;55.09
54666;BME280;40566;50.006;36.180;2023-04-24T19:16:43;99593.94;;;13.33;55.31
54666;BME280;40566;50.006;36.180;2023-04-24T19:21:43;99602.91;;;13.24;55.65
54666;BME280;40566;50.006;36.180;2023-04-24T19:26:44;99597.97;;;13.18;55.70
54666;BME280;40566;50.006;36.180;2023-04-24T19:31:45;99599.09;;;13.11;56.00
54666;BME280;40566;50.006;36.180;2023-04-24T19:36:46;99591.66;;;13.03;55.98
54666;BME280;40566;50.006;36.180;2023-04-24T19:41:46;99598.75;;;12.98;56.59
54666;BME280;40566;50.006;36.180;2023-04-24T19:46:47;99587.78;;;12.92;56.76
54666;BME280;40566;50.006;36.180;2023-04-24T19:51:47;99587.97;;;12.87;56.84
54666;BME280;40566;50.006;36.180;2023-04-24T19:56:48;99582.13;;;12.82;57.11
54666;BME280;40566;50.006;36.180;2023-04-24T20:01:49;99581.50;;;12.75;57.22
54666;BME280;40566;50.006;36.180;2023-04-24T20:06:50;99583.50;;;12.68;57.25
54666;BME280;40566;50.006;36.180;2023-04-24T20:11:51;99577.63;;;12.63;57.34
54666;BME280;40566;50.006;36.180;2023-04-24T20:16:52;99569.94;;;12.62;57.46
54666;BME280;40566;50.006;36.180;2023-04-24T20:21:54;99568.34;;;12.58;57.75
54666;BME280;40566;50.006;36.180;2023-04-24T20:26:55;99572.97;;;12.49;57.91
54666;BME280;40566;50.006;36.180;2023-04-24T20:31:56;99566.28;;;12.44;58.09
54666;BME280;40566;50.006;36.180;2023-04-24T20:36:57;99565.56;;;12.40;58.15
54666;BME280;40566;50.006;36.180;2023-04-24T20:41:58;99567.38;;;12.38;58.26
54666;BME280;40566;50.006;36.180;2023-04-24T20:46:59;99569.88;;;12.40;58.30
54666;BME280;40566;50.006;36.180;2023-04-24T20:51:59;99563.81;;;12.41;58.43
54666;BME280;40566;50.006;36.180;2023-04-24T20:57:00;99571.66;;;12.39;58.73
54666;BME280;40566;50.006;36.180;2023-04-24T21:02:01;99570.56;;;12.45;58.49
54666;BME280;40566;50.006;36.180;2023-04-24T21:07:02;99562.06;;;12.41;58.97
54666;BME280;40566;50.006;36.180;2023-04-24T21:12:03;99568.41;;;12.56;59.08
54666;BME280;40566;50.006;36.180;2023-04-24T21:17:04;99560.44;;;12.61;58.85
54666;BME280;40566;50.006;36.180;2023-04-24T21:22:04;99559.72;;;12.57;59.21
54666;BME280;40566;50.006;36.180;2023-04-24T21:27:05;99555.44;;;12.56;59.56
54666;BME280;40566;50.006;36.180;2023-04-24T21:32:06;99555.75;;;12.48;59.53
54666;BME280;40566;50.006;36.180;2023-04-24T21:37:07;99547.56;;;12.36;59.97
54666;BME280;40566;50.006;36.180;2023-04-24T21:42:08;99534.97;;;12.26;60.11
54666;BME280;40566;50.006;36.180;2023-04-24T21:47:09;99539.56;;;12.18;60.25
54666;BME280;40566;50.006;36.180;2023-04-24T21:52:09;99538.88;;;12.15;59.94
54666;BME280;40566;50.006;36.180;2023-04-24T21:57:10;99529.44;;;12.12;59.70
54666;BME280;40566;50.006;36.180;2023-04-24T22:02:12;99521.09;;;12.04;60.07
54666;BME280;40566;50.006;36.180;2023-04-24T22:07:13;99517.97;;;11.96;59.89
54666;BME280;40566;50.006;36.180;2023-04-24T22:12:14;99513.06;;;11.86;60.13
54666;BME280;40566;50.006;36.180;2023-04-24T22:17:14;99507.28;;;11.80;60.53
54666;BME280;40566;50.006;36.180;2023-04-24T22:22:16;99505.81;;;11.73;60.63
54666;BME280;40566;50.006;36.180;2023-04-24T22:27:17;99502.38;;;11.72;60.77
54666;BME280;40566;50.006;36.180;2023-04-24T22:32:18;99496.41;;;11.70;60.58
54666;BME280;40566;50.006;36.180;2023-04-24T22:37:18;99493.13;;;11.65;61.01
54666;BME280;40566;50.006;36.180;2023-04-24T22:42:19;99482.75;;;11.65;60.84
54666;BME280;40566;50.006;36.180;2023-04-24T22:47:20;99493.13;;;11.65;61.00
54666;BME280;40566;50.006;36.180;2023-04-24T22:52:21;99488.75;;;11.67;61.06
54666;BME280;40566;50.006;36.180;2023-04-24T22:57:21;99480.75;;;11.73;61.15
54666;BME280;40566;50.006;36.180;2023-04-24T23:02:22;99479.66;;;11.79;61.05
54666;BME280;40566;50.006;36.180;2023-04-24T23:07:23;99471.59;;;11.86;61.26
54666;BME280;40566;50.006;36.180;2023-04-24T23:12:23;99465.53;;;11.87;61.42
54666;BME280;40566;50.006;36.180;2023-04-24T23:17:24;99469.03;;;11.86;61.58
54666;BME280;40566;50.006;36.180;2023-04-24T23:22:26;99444.19;;;11.81;61.89
54666;BME280;40566;50.006;36.180;2023-04-24T23:27:26;99451.34;;;11.74;62.14
54666;BME280;40566;50.006;36.180;2023-04-24T23:32:27;99444.78;;;11.65;62.07
54666;BME280;40566;50.006;36.180;2023-04-24T23:37:28;99437.34;;;11.56;61.98
54666;BME280;40566;50.006;36.180;2023-04-24T23:42:28;99427.31;;;11.47;62.12
54666;BME280;40566;50.006;36.180;2023-04-24T23:47:30;99424.19;;;11.37;62.58
54666;BME280;40566;50.006;36.180;2023-04-24T23:52:30;99420.22;;;11.28;62.94
54666;BME280;40566;50.006;36.180;2023-04-24T23:57:31;99426.34;;;11.26;62.85
